Time;durP1;ratioP1;P1;durP2;ratioP2;P2;SDS_P1;SDS_P2;PMS_P1;PMS_P2;Temp;Humidity;BMP_temperature;BMP_pressure;BME280_temperature;BME280_humidity;BME280_pressure;Samples;Min_cycle;Max_cycle;Signal;HPM_P1;HPM_P2
2022/01/29 00:02:03;;;;;;;29.35;12.73;;;5.50;99.90;;;;;;5042631;28;20371;-71
2022/01/29 00:04:29;;;;;;;32.28;12.57;;;5.50;99.90;;;;;;5044350;28;20052;-72
2022/01/29 00:06:54;;;;;;;30.13;13.13;;;5.50;99.90;;;;;;5025879;28;20029;-70
2022/01/29 00:09:20;;;;;;;37.55;13.00;;;5.50;99.90;;;;;;5022747;28;20036;-71
2022/01/29 00:11:46;;;;;;;36.90;14.57;;;5.50;99.90;;;;;;5019802;28;20031;-72
2022/01/29 00:14:12;;;;;;;36.15;15.05;;;5.50;99.90;;;;;;5059865;28;20041;-70
2022/01/29 00:16:40;;;;;;;39.67;15.40;;;5.50;99.90;;;;;;5041417;28;20040;-72
2022/01/29 00:19:06;;;;;;;33.92;15.15;;;5.50;99.90;;;;;;5051104;28;20569;-68
2022/01/29 00:21:32;;;;;;;33.15;15.07;;;5.50;99.90;;;;;;5055871;28;20092;-69
2022/01/29 00:23:58;;;;;;;38.03;16.23;;;5.50;99.90;;;;;;5058805;28;20033;-70
2022/01/29 00:26:26;;;;;;;34.47;16.05;;;5.60;99.90;;;;;;5060424;28;20029;-71
2022/01/29 00:28:52;;;;;;;33.25;16.08;;;5.60;99.90;;;;;;5056578;28;20079;-72
2022/01/29 00:31:18;;;;;;;36.03;17.08;;;5.60;99.90;;;;;;5062955;28;20506;-71
2022/01/29 00:33:44;;;;;;;45.88;17.02;;;5.60;99.90;;;;;;5039331;28;20121;-70
2022/01/29 00:36:10;;;;;;;42.78;17.33;;;5.60;99.90;;;;;;5055659;28;20029;-69
2022/01/29 00:38:36;;;;;;;39.90;17.15;;;5.60;99.90;;;;;;5061476;28;20510;-69
2022/01/29 00:41:02;;;;;;;44.47;18.35;;;5.70;99.90;;;;;;5056813;28;20033;-70
2022/01/29 00:43:28;;;;;;;37.75;17.30;;;5.70;99.90;;;;;;5060897;28;20589;-69
2022/01/29 00:45:54;;;;;;;44.20;18.65;;;5.70;99.90;;;;;;5041399;28;20075;-67
2022/01/29 00:48:20;;;;;;;42.58;19.33;;;5.70;99.90;;;;;;5063544;28;20079;-69
2022/01/29 00:50:46;;;;;;;39.20;19.05;;;5.70;99.90;;;;;;5047856;28;20029;-71
2022/01/29 00:53:12;;;;;;;45.45;19.65;;;5.70;99.90;;;;;;5037377;28;20052;-68
2022/01/29 00:55:41;;;;;;;44.60;19.65;;;5.60;99.90;;;;;;5055707;28;20045;-72
2022/01/29 00:58:06;;;;;;;38.35;19.10;;;5.60;99.90;;;;;;5060401;28;20106;-71
2022/01/29 01:00:32;;;;;;;43.65;20.60;;;5.60;99.90;;;;;;5054251;28;20021;-69
2022/01/29 01:02:58;;;;;;;44.88;21.20;;;5.70;99.90;;;;;;5064894;28;20030;-71
2022/01/29 01:05:23;;;;;;;48.45;21.85;;;5.70;99.90;;;;;;5055187;28;20045;-69
2022/01/29 01:07:49;;;;;;;45.83;21.92;;;5.70;99.90;;;;;;5058609;28;20029;-70
2022/01/29 01:10:15;;;;;;;46.70;22.05;;;5.60;99.90;;;;;;5057876;28;20025;-72
2022/01/29 01:12:41;;;;;;;49.95;22.40;;;5.60;99.90;;;;;;5059819;28;20088;-70
2022/01/29 01:15:07;;;;;;;56.85;24.52;;;5.60;99.90;;;;;;5056386;28;20060;-70
2022/01/29 01:17:33;;;;;;;52.03;24.77;;;5.60;99.90;;;;;;5059070;28;20446;-69
2022/01/29 01:19:59;;;;;;;59.53;26.85;;;5.60;99.90;;;;;;5058426;28;20025;-70
2022/01/29 01:22:24;;;;;;;56.75;25.92;;;5.60;99.90;;;;;;5051440;28;20029;-69
2022/01/29 01:24:50;;;;;;;58.70;27.65;;;5.60;99.90;;;;;;5060992;28;20604;-67
2022/01/29 01:27:16;;;;;;;62.13;28.25;;;5.60;99.90;;;;;;5052072;28;20032;-69
2022/01/29 01:29:43;;;;;;;62.85;28.08;;;5.50;99.90;;;;;;5051233;28;20021;-71
2022/01/29 01:32:11;;;;;;;63.15;28.45;;;5.60;99.90;;;;;;5047705;28;20024;-71
2022/01/29 01:34:42;;;;;;;63.13;29.92;;;5.50;99.90;;;;;;5050287;28;20056;-72
2022/01/29 01:37:13;;;;;;;66.65;29.98;;;5.50;99.90;;;;;;5051084;28;20040;-72
2022/01/29 01:39:40;;;;;;;64.57;29.90;;;5.50;99.90;;;;;;5057875;28;20525;-72
2022/01/29 01:42:07;;;;;;;63.55;30.20;;;5.50;99.90;;;;;;5053219;28;20026;-71
2022/01/29 01:44:38;;;;;;;63.15;30.90;;;5.50;99.90;;;;;;5052407;28;20751;-70
2022/01/29 01:47:04;;;;;;;69.43;32.40;;;5.60;99.90;;;;;;5054930;28;20591;-70
2022/01/29 01:49:30;;;;;;;66.60;31.85;;;5.60;99.90;;;;;;5054886;28;20041;-69
2022/01/29 01:51:56;;;;;;;73.07;32.38;;;5.60;99.90;;;;;;5054389;28;20029;-70
2022/01/29 01:54:22;;;;;;;65.10;32.30;;;5.60;99.90;;;;;;5051138;28;20067;-71
2022/01/29 01:56:48;;;;;;;66.13;31.17;;;5.60;99.90;;;;;;5051776;28;20029;-69
2022/01/29 01:59:14;;;;;;;73.63;32.72;;;5.60;99.90;;;;;;5044981;28;20075;-71
2022/01/29 02:01:39;;;;;;;84.85;36.90;;;5.60;99.90;;;;;;5051578;28;20037;-72
2022/01/29 02:04:05;;;;;;;69.90;35.33;;;5.60;99.90;;;;;;5050298;28;20433;-73
2022/01/29 02:06:31;;;;;;;76.35;34.90;;;5.60;99.90;;;;;;5052205;28;20028;-73
2022/01/29 02:08:58;;;;;;;81.50;36.90;;;5.60;99.90;;;;;;5046130;28;20364;-71
2022/01/29 02:11:25;;;;;;;83.15;36.97;;;5.60;99.90;;;;;;5048956;28;20026;-70
2022/01/29 02:13:51;;;;;;;82.18;36.72;;;5.60;99.90;;;;;;5049673;28;20028;-70
2022/01/29 02:16:17;;;;;;;79.45;35.40;;;5.60;99.90;;;;;;5045440;28;20029;-71
2022/01/29 02:18:44;;;;;;;81.47;37.92;;;5.60;99.90;;;;;;5041919;28;20021;-72
2022/01/29 02:21:11;;;;;;;89.57;38.40;;;5.60;99.90;;;;;;5035011;28;20032;-72
2022/01/29 02:23:37;;;;;;;82.35;38.10;;;5.60;99.90;;;;;;5047379;28;20025;-72
2022/01/29 02:26:03;;;;;;;86.53;38.92;;;5.60;99.90;;;;;;5048364;28;20025;-70
2022/01/29 02:28:28;;;;;;;90.55;40.58;;;5.60;99.90;;;;;;5048085;28;20131;-72
2022/01/29 02:31:00;;;;;;;97.65;41.67;;;5.60;99.90;;;;;;5042689;28;20029;-70
2022/01/29 02:33:27;;;;;;;95.05;39.13;;;5.60;99.90;;;;;;5043090;28;20108;-72
2022/01/29 02:35:54;;;;;;;93.68;40.38;;;5.60;99.90;;;;;;5044826;28;20323;-69
2022/01/29 02:38:23;;;;;;;93.07;40.38;;;5.60;99.90;;;;;;5048158;28;20483;-71
2022/01/29 02:40:51;;;;;;;94.32;40.95;;;5.60;99.90;;;;;;5044225;28;20033;-71
2022/01/29 02:43:32;;;;;;;91.97;39.25;;;5.70;99.90;;;;;;5045956;28;20294;-71
2022/01/29 02:48:53;;;;;;;88.05;38.13;;;5.60;99.90;;;;;;5023550;28;20034;-72
2022/01/29 02:51:19;;;;;;;90.75;41.03;;;5.60;99.90;;;;;;5042067;28;20034;-72
2022/01/29 02:53:45;;;;;;;101.65;42.00;;;5.70;99.90;;;;;;5039696;28;20099;-72
2022/01/29 02:56:12;;;;;;;99.00;39.55;;;5.60;99.90;;;;;;5022591;28;20029;-72
2022/01/29 02:58:38;;;;;;;94.07;40.60;;;5.70;99.90;;;;;;5047509;28;20029;-71
2022/01/29 03:01:05;;;;;;;103.38;41.80;;;5.70;99.90;;;;;;5072737;22;20060;-71
2022/01/29 03:03:30;;;;;;;101.22;40.85;;;5.70;99.90;;;;;;5058493;28;20021;-71
2022/01/29 03:05:56;;;;;;;101.20;41.35;;;5.70;99.90;;;;;;5076414;28;20031;-72
2022/01/29 03:08:22;;;;;;;99.55;39.90;;;5.70;99.90;;;;;;5057960;28;20492;-71
2022/01/29 03:10:50;;;;;;;101.00;40.88;;;5.70;99.90;;;;;;5064068;28;20389;-72
2022/01/29 03:13:16;;;;;;;98.88;40.50;;;5.70;99.90;;;;;;5060090;28;20021;-71
2022/01/29 03:15:42;;;;;;;96.15;41.92;;;5.70;99.90;;;;;;5037380;28;20032;-72
2022/01/29 03:18:08;;;;;;;95.70;42.35;;;5.70;99.90;;;;;;5060975;28;20036;-72
2022/01/29 03:20:34;;;;;;;103.00;40.92;;;5.70;99.90;;;;;;5060226;28;20073;-72
2022/01/29 03:23:00;;;;;;;93.03;38.70;;;5.70;99.90;;;;;;5055294;28;20031;-71
2022/01/29 03:25:26;;;;;;;95.72;39.63;;;5.80;99.90;;;;;;5058461;28;20020;-71
2022/01/29 03:27:52;;;;;;;94.25;39.38;;;5.70;99.90;;;;;;5042414;28;20505;-71
2022/01/29 03:30:18;;;;;;;97.78;38.08;;;5.70;99.90;;;;;;5056635;28;20036;-72
2022/01/29 03:32:43;;;;;;;95.50;40.10;;;5.80;99.90;;;;;;5058705;28;20711;-71
2022/01/29 03:35:10;;;;;;;97.78;38.78;;;5.80;99.90;;;;;;5060187;28;20401;-71
2022/01/29 03:37:36;;;;;;;94.88;39.00;;;5.80;99.90;;;;;;5061706;28;20077;-71
2022/01/29 03:40:05;;;;;;;93.00;38.35;;;5.80;99.90;;;;;;5059771;28;20535;-71
2022/01/29 03:42:35;;;;;;;95.35;37.75;;;5.80;99.90;;;;;;5062428;28;20029;-71
2022/01/29 03:45:02;;;;;;;82.55;36.60;;;5.80;99.90;;;;;;5061951;28;20040;-72
2022/01/29 03:47:27;;;;;;;86.85;40.00;;;5.80;99.90;;;;;;5059407;28;20037;-71
2022/01/29 03:49:53;;;;;;;89.05;36.40;;;5.80;99.90;;;;;;5056461;28;20035;-71
2022/01/29 03:52:19;;;;;;;90.43;37.53;;;5.80;99.90;;;;;;5056838;28;20035;-71
2022/01/29 03:54:45;;;;;;;83.68;37.30;;;5.90;99.90;;;;;;5044364;28;20025;-71
2022/01/29 03:57:10;;;;;;;90.93;38.65;;;5.90;99.90;;;;;;5062827;28;20521;-70
2022/01/29 03:59:36;;;;;;;83.78;35.65;;;5.90;99.90;;;;;;5065656;28;20033;-71
2022/01/29 04:02:02;;;;;;;87.95;36.70;;;5.90;99.90;;;;;;5063878;28;20024;-72
2022/01/29 04:04:28;;;;;;;81.40;35.85;;;5.90;99.90;;;;;;5059529;28;20388;-71
2022/01/29 04:06:53;;;;;;;98.03;38.13;;;5.90;99.90;;;;;;5034598;28;20029;-70
2022/01/29 04:09:20;;;;;;;83.53;36.25;;;6.00;99.90;;;;;;5035861;28;21798;-71
2022/01/29 04:11:46;;;;;;;89.45;37.53;;;6.00;99.90;;;;;;5045606;28;20036;-72
2022/01/29 04:14:19;;;;;;;85.13;37.13;;;6.00;99.90;;;;;;5051839;28;20410;-71
2022/01/29 04:16:45;;;;;;;85.35;36.13;;;6.00;99.90;;;;;;5035987;28;20036;-70
2022/01/29 04:19:11;;;;;;;83.65;35.20;;;6.00;99.90;;;;;;5046841;28;20413;-71
2022/01/29 04:21:38;;;;;;;89.95;35.65;;;6.00;99.90;;;;;;5054495;28;20363;-71
2022/01/29 04:24:04;;;;;;;81.25;34.65;;;6.00;99.90;;;;;;5063537;28;20440;-71
2022/01/29 04:26:35;;;;;;;76.85;32.70;;;6.10;99.90;;;;;;5065456;28;20037;-73
2022/01/29 04:29:07;;;;;;;75.80;34.23;;;6.10;99.90;;;;;;5067818;28;20131;-71
2022/01/29 04:31:44;;;;;;;77.65;34.05;;;6.10;99.90;;;;;;5062996;28;20306;-71
2022/01/29 04:34:09;;;;;;;70.80;30.75;;;6.10;99.90;;;;;;5064199;28;20086;-70
2022/01/29 04:36:35;;;;;;;79.18;31.42;;;6.10;99.90;;;;;;5047451;28;20466;-70
2022/01/29 04:39:01;;;;;;;72.97;30.75;;;6.10;99.90;;;;;;5065051;28;20037;-70
2022/01/29 04:41:26;;;;;;;72.18;31.17;;;6.20;99.90;;;;;;5056867;28;20036;-70
2022/01/29 04:43:52;;;;;;;70.57;32.47;;;6.20;99.90;;;;;;5052945;28;20041;-71
2022/01/29 04:46:18;;;;;;;72.90;31.20;;;6.20;99.90;;;;;;5057946;28;20021;-71
2022/01/29 04:48:43;;;;;;;71.57;32.28;;;6.20;99.90;;;;;;5053050;28;20090;-71
2022/01/29 04:51:09;;;;;;;58.00;28.02;;;6.20;99.90;;;;;;5050274;28;20035;-72
2022/01/29 04:53:35;;;;;;;68.43;31.85;;;6.20;99.90;;;;;;5040821;28;20120;-71
2022/01/29 04:56:01;;;;;;;66.35;30.33;;;6.20;99.90;;;;;;5056315;28;20033;-73
2022/01/29 04:58:27;;;;;;;71.72;31.52;;;6.30;99.90;;;;;;5055427;28;20044;-71
2022/01/29 05:00:56;;;;;;;71.65;31.05;;;6.30;99.90;;;;;;5045244;28;20087;-71
2022/01/29 05:03:21;;;;;;;61.83;30.17;;;6.30;99.90;;;;;;5054889;28;20460;-72
2022/01/29 05:05:47;;;;;;;68.07;32.50;;;6.30;99.90;;;;;;5046506;28;20052;-71
2022/01/29 05:08:13;;;;;;;78.20;32.00;;;6.30;99.90;;;;;;5058166;28;20112;-71
2022/01/29 05:10:39;;;;;;;66.93;30.65;;;6.30;99.90;;;;;;5057947;28;20097;-71
2022/01/29 05:13:10;;;;;;;62.72;29.45;;;6.40;99.90;;;;;;5061678;28;20481;-71
2022/01/29 05:16:01;;;;;;;61.15;27.67;;;6.40;99.90;;;;;;5045902;28;20505;-72
2022/01/29 05:26:52;;;;;;;64.13;28.13;;;6.40;99.90;;;;;;5051704;28;20093;-72
2022/01/29 05:29:18;;;;;;;63.08;29.00;;;6.40;99.90;;;;;;5053196;28;20379;-71
2022/01/29 05:31:44;;;;;;;64.82;27.98;;;6.40;99.90;;;;;;5053799;28;20494;-71
2022/01/29 05:34:11;;;;;;;68.70;28.35;;;6.50;99.90;;;;;;5060038;28;20033;-71
2022/01/29 05:36:37;;;;;;;67.30;28.77;;;6.50;99.90;;;;;;5055281;28;20044;-72
2022/01/29 05:39:05;;;;;;;60.22;27.17;;;6.50;99.90;;;;;;5056743;28;20029;-71
2022/01/29 05:41:32;;;;;;;61.45;28.90;;;6.50;99.90;;;;;;5059501;28;20032;-71
2022/01/29 05:43:57;;;;;;;57.33;25.85;;;6.50;99.90;;;;;;5057857;28;20017;-71
2022/01/29 05:46:23;;;;;;;57.38;25.75;;;6.50;99.90;;;;;;5035381;28;20029;-72
2022/01/29 05:48:49;;;;;;;57.83;27.65;;;6.50;99.90;;;;;;5057669;28;20076;-71
2022/01/29 05:51:14;;;;;;;60.60;26.65;;;6.60;99.90;;;;;;5051364;28;20035;-70
2022/01/29 05:53:40;;;;;;;55.80;27.15;;;6.60;99.90;;;;;;5045620;28;20115;-72
2022/01/29 05:56:06;;;;;;;60.35;27.13;;;6.60;99.90;;;;;;5030724;28;20072;-71
2022/01/29 05:58:32;;;;;;;55.72;26.25;;;6.60;99.90;;;;;;5059643;28;20059;-71
2022/01/29 06:00:58;;;;;;;53.10;25.60;;;6.70;99.90;;;;;;5048790;28;20025;-71
2022/01/29 06:03:24;;;;;;;56.92;25.75;;;6.70;99.90;;;;;;5030020;28;20087;-73
2022/01/29 06:05:49;;;;;;;56.17;24.35;;;6.70;99.90;;;;;;5060066;28;20029;-72
2022/01/29 06:08:15;;;;;;;48.00;24.77;;;6.70;99.90;;;;;;5047386;28;20263;-71
2022/01/29 06:10:41;;;;;;;50.55;24.70;;;6.70;99.90;;;;;;5049026;28;20029;-71
2022/01/29 06:13:12;;;;;;;46.10;22.30;;;6.70;99.90;;;;;;5050168;28;20466;-71
2022/01/29 06:15:40;;;;;;;;;;;6.80;99.90;;;;;;5059226;28;20103;-72
2022/01/29 06:18:07;;;;;;;53.83;23.63;;;6.80;99.90;;;;;;5043635;28;19915;-72
2022/01/29 06:20:33;;;;;;;49.58;22.63;;;6.80;99.90;;;;;;5059870;28;20052;-72
2022/01/29 06:22:59;;;;;;;50.53;24.58;;;6.90;99.90;;;;;;5056499;28;20053;-72
2022/01/29 06:25:25;;;;;;;56.40;24.83;;;6.90;99.90;;;;;;5049263;28;20033;-72
2022/01/29 06:27:50;;;;;;;56.88;25.60;;;6.90;99.90;;;;;;5053438;28;20024;-73
2022/01/29 06:30:16;;;;;;;55.75;26.05;;;6.90;99.90;;;;;;5057751;28;20405;-72
2022/01/29 06:32:42;;;;;;;50.25;24.35;;;6.90;99.90;;;;;;5057067;28;20112;-72
2022/01/29 06:35:09;;;;;;;51.30;24.25;;;7.00;99.90;;;;;;5044348;28;20032;-71
2022/01/29 06:37:35;;;;;;;50.47;25.02;;;6.90;99.90;;;;;;5051784;28;20029;-73
2022/01/29 06:40:05;;;;;;;52.83;24.80;;;7.00;99.90;;;;;;5056472;28;20041;-72
2022/01/29 06:42:30;;;;;;;56.10;25.90;;;6.90;99.90;;;;;;5047704;28;20021;-72
2022/01/29 06:44:56;;;;;;;62.72;27.33;;;7.00;99.90;;;;;;5040589;28;20028;-72
2022/01/29 06:47:22;;;;;;;55.58;25.08;;;7.00;99.90;;;;;;5056039;28;20434;-73
2022/01/29 06:49:47;;;;;;;61.40;28.27;;;7.10;99.90;;;;;;5059762;28;20025;-72
2022/01/29 06:52:13;;;;;;;64.38;29.45;;;7.10;99.90;;;;;;5027632;28;20059;-73
2022/01/29 06:54:39;;;;;;;77.60;31.55;;;7.00;99.90;;;;;;5060915;28;20021;-73
2022/01/29 06:57:05;;;;;;;70.50;29.23;;;7.10;99.90;;;;;;5047316;28;20523;-72
2022/01/29 06:59:31;;;;;;;67.55;30.60;;;7.10;99.90;;;;;;5050059;28;20116;-73
2022/01/29 07:01:56;;;;;;;66.05;29.63;;;7.10;99.90;;;;;;5052094;28;20033;-72
2022/01/29 07:04:22;;;;;;;78.15;31.67;;;7.10;99.90;;;;;;5045648;28;20112;-72
2022/01/29 07:06:48;;;;;;;75.43;31.17;;;7.10;99.90;;;;;;5042229;28;20051;-72
2022/01/29 07:09:13;;;;;;;78.45;31.70;;;7.20;99.90;;;;;;5054640;28;20029;-73
2022/01/29 07:11:42;;;;;;;82.82;31.55;;;7.20;99.90;;;;;;5061698;28;20029;-72
2022/01/29 07:14:08;;;;;;;75.90;29.95;;;7.20;99.90;;;;;;5058856;28;20486;-72
2022/01/29 07:16:35;;;;;;;75.57;31.67;;;7.20;99.90;;;;;;5054036;28;20104;-72
2022/01/29 07:19:03;;;;;;;70.72;29.65;;;7.20;99.90;;;;;;5054210;28;20021;-72
2022/01/29 07:21:29;;;;;;;76.00;30.98;;;7.20;99.90;;;;;;5057349;28;20067;-71
2022/01/29 07:23:55;;;;;;;72.95;30.73;;;7.20;99.90;;;;;;5020518;28;20025;-70
2022/01/29 07:26:21;;;;;;;67.95;30.00;;;7.20;99.90;;;;;;5054394;28;20490;-71
2022/01/29 07:28:46;;;;;;;68.65;29.40;;;7.30;99.90;;;;;;5047508;28;20166;-71
2022/01/29 07:31:12;;;;;;;68.47;28.55;;;7.30;99.90;;;;;;5044495;28;20363;-71
2022/01/29 07:33:41;;;;;;;66.03;27.88;;;7.30;99.90;;;;;;5041041;28;20048;-71
2022/01/29 07:36:06;;;;;;;68.38;27.58;;;7.30;99.90;;;;;;5052653;28;20103;-73
2022/01/29 07:38:32;;;;;;;64.35;27.58;;;7.40;99.90;;;;;;5055677;28;20052;-72
2022/01/29 07:40:58;;;;;;;63.42;28.00;;;7.40;99.90;;;;;;5051766;28;20107;-72
2022/01/29 07:43:23;;;;;;;61.47;25.13;;;7.40;99.90;;;;;;5049389;28;20386;-72
2022/01/29 07:45:49;;;;;;;56.42;24.13;;;7.40;99.90;;;;;;5053952;28;20037;-72
2022/01/29 07:48:15;;;;;;;56.88;24.27;;;7.40;99.90;;;;;;5054989;28;20056;-72
2022/01/29 07:50:40;;;;;;;59.45;25.95;;;7.40;99.90;;;;;;5057482;28;20029;-72
2022/01/29 07:53:06;;;;;;;58.22;25.10;;;7.40;99.90;;;;;;5044687;28;20558;-72
2022/01/29 07:55:32;;;;;;;48.90;23.80;;;7.50;99.90;;;;;;5046968;28;20390;-72
2022/01/29 07:58:02;;;;;;;51.42;22.40;;;7.50;99.90;;;;;;5053351;28;20107;-73
2022/01/29 08:00:28;;;;;;;45.03;21.35;;;7.50;99.90;;;;;;5036397;28;20024;-70
2022/01/29 08:02:54;;;;;;;47.85;20.95;;;7.50;99.90;;;;;;5016243;28;20113;-73
2022/01/29 08:05:20;;;;;;;42.30;20.33;;;7.50;99.90;;;;;;5056170;28;20029;-72
2022/01/29 08:07:46;;;;;;;46.00;21.90;;;7.50;99.90;;;;;;5049266;28;20029;-76
2022/01/29 08:10:11;;;;;;;44.20;20.50;;;7.50;99.90;;;;;;5027519;28;20025;-75
2022/01/29 08:12:37;;;;;;;44.80;20.10;;;7.50;99.90;;;;;;5044776;28;20120;-73
2022/01/29 08:15:04;;;;;;;47.83;20.98;;;7.50;99.90;;;;;;5041795;28;20032;-72
2022/01/29 08:17:30;;;;;;;42.88;20.05;;;7.50;99.90;;;;;;5048981;28;20032;-72
2022/01/29 08:19:57;;;;;;;44.47;20.40;;;7.50;99.90;;;;;;5036524;28;20024;-70
2022/01/29 08:22:23;;;;;;;48.22;20.58;;;7.50;99.90;;;;;;5058067;28;20424;-70
2022/01/29 08:24:50;;;;;;;42.35;20.10;;;7.50;99.90;;;;;;5032949;28;20033;-71
2022/01/29 08:27:17;;;;;;;41.45;18.00;;;7.50;99.90;;;;;;5046766;28;20035;-73
2022/01/29 08:29:43;;;;;;;39.85;17.80;;;7.50;99.90;;;;;;5052768;28;20025;-72
2022/01/29 08:32:08;;;;;;;36.80;17.58;;;7.50;99.90;;;;;;5044952;28;20052;-73
2022/01/29 08:34:34;;;;;;;38.88;17.48;;;7.60;99.90;;;;;;5048134;28;20029;-72
2022/01/29 08:37:04;;;;;;;40.53;16.75;;;7.60;99.90;;;;;;5024829;28;20471;-72
2022/01/29 08:39:30;;;;;;;34.72;16.80;;;7.60;99.90;;;;;;5034489;28;20437;-72
2022/01/29 08:41:56;;;;;;;34.10;16.33;;;7.60;99.90;;;;;;5048864;28;20052;-71
2022/01/29 08:44:22;;;;;;;31.65;14.63;;;7.60;99.90;;;;;;5044376;28;20027;-72
2022/01/29 08:46:48;;;;;;;37.13;16.23;;;7.60;99.90;;;;;;5052013;28;20066;-72
2022/01/29 08:49:13;;;;;;;27.98;14.38;;;7.60;99.90;;;;;;5054019;28;20029;-74
2022/01/29 08:51:39;;;;;;;33.47;15.65;;;7.60;99.90;;;;;;5057056;28;20091;-73
2022/01/29 08:54:05;;;;;;;31.27;15.25;;;7.60;99.90;;;;;;5048587;28;20048;-72
2022/01/29 08:56:31;;;;;;;32.60;15.32;;;7.60;99.90;;;;;;5050073;28;20029;-72
2022/01/29 08:58:56;;;;;;;27.30;14.27;;;7.60;99.90;;;;;;5058180;28;20053;-70
2022/01/29 09:01:22;;;;;;;28.83;14.32;;;7.70;99.90;;;;;;5064117;23;20064;-72
2022/01/29 09:03:48;;;;;;;26.50;14.00;;;7.80;99.90;;;;;;5044597;28;20533;-72
2022/01/29 09:06:13;;;;;;;28.35;13.63;;;7.80;99.90;;;;;;5048070;28;20037;-72
2022/01/29 09:08:40;;;;;;;27.30;13.52;;;7.70;99.90;;;;;;5049967;28;20021;-73
2022/01/29 09:11:07;;;;;;;26.25;13.15;;;7.70;99.90;;;;;;5030507;28;20442;-71
2022/01/29 09:13:32;;;;;;;30.25;13.45;;;7.80;99.90;;;;;;5031372;28;20037;-74
2022/01/29 09:15:58;;;;;;;26.50;14.05;;;7.80;99.90;;;;;;5031142;28;20391;-74
2022/01/29 09:18:25;;;;;;;25.80;12.95;;;7.90;99.90;;;;;;5029894;28;20129;-74
2022/01/29 09:20:51;;;;;;;27.25;13.32;;;7.90;99.90;;;;;;5030794;28;20040;-75
2022/01/29 09:23:18;;;;;;;21.13;11.55;;;7.90;99.90;;;;;;5023143;28;20021;-76
2022/01/29 09:25:44;;;;;;;19.77;11.18;;;7.90;99.90;;;;;;5030991;28;21168;-74
2022/01/29 09:28:11;;;;;;;19.67;10.63;;;7.90;99.90;;;;;;5030269;28;20507;-76
2022/01/29 09:30:37;;;;;;;23.10;11.82;;;7.90;99.90;;;;;;5032481;28;20045;-74
2022/01/29 09:33:03;;;;;;;26.25;12.38;;;7.90;99.90;;;;;;5029823;28;20041;-76
2022/01/29 09:35:30;;;;;;;24.95;11.73;;;7.90;99.90;;;;;;5029158;28;20025;-76
2022/01/29 09:37:56;;;;;;;25.00;13.18;;;7.90;99.90;;;;;;5037268;28;20025;-76
2022/01/29 09:40:23;;;;;;;25.90;12.57;;;7.90;99.90;;;;;;5039690;28;20021;-76
2022/01/29 09:42:50;;;;;;;24.55;12.27;;;7.90;99.90;;;;;;5035181;28;20029;-75
2022/01/29 09:45:19;;;;;;;23.00;12.50;;;8.00;99.90;;;;;;5030854;28;20112;-76
2022/01/29 09:47:49;;;;;;;25.42;11.40;;;8.00;99.90;;;;;;5031286;28;20120;-73
2022/01/29 09:50:17;;;;;;;24.40;12.65;;;8.00;99.90;;;;;;5025395;28;20064;-74
2022/01/29 09:52:43;;;;;;;22.20;12.35;;;8.00;99.90;;;;;;5023935;28;20060;-77
2022/01/29 09:55:09;;;;;;;25.55;11.90;;;8.00;99.90;;;;;;5029764;28;20044;-77
2022/01/29 09:57:36;;;;;;;22.30;10.98;;;7.90;99.90;;;;;;5029411;28;20088;-76
2022/01/29 10:00:04;;;;;;;24.75;12.25;;;7.90;99.90;;;;;;5031702;28;20039;-76
2022/01/29 10:02:30;;;;;;;29.10;12.35;;;8.00;99.90;;;;;;5031173;28;20025;-76
2022/01/29 10:04:57;;;;;;;24.20;12.50;;;8.00;99.90;;;;;;5029886;28;20040;-75
2022/01/29 10:07:29;;;;;;;22.67;12.00;;;8.00;99.90;;;;;;5029769;28;20689;-77
2022/01/29 10:09:57;;;;;;;26.98;11.98;;;8.00;99.90;;;;;;5025214;28;20033;-75
2022/01/29 10:12:27;;;;;;;25.38;11.05;;;8.00;99.90;;;;;;5030249;28;20095;-75
2022/01/29 10:14:56;;;;;;;19.80;10.50;;;8.10;99.90;;;;;;5030913;28;20106;-77
2022/01/29 10:17:51;;;;;;;22.30;11.45;;;8.10;99.90;;;;;;5027879;28;20037;-75
2022/01/29 10:20:21;;;;;;;22.98;10.43;;;8.10;99.90;;;;;;5032411;28;20033;-77
2022/01/29 10:22:52;;;;;;;21.40;11.27;;;8.10;99.90;;;;;;5034256;28;20024;-77
2022/01/29 10:25:30;;;;;;;23.25;10.68;;;8.10;99.90;;;;;;5028107;28;20467;-76
2022/01/29 10:28:16;;;;;;;21.00;10.57;;;8.10;99.90;;;;;;5032278;28;20033;-78
2022/01/29 10:30:50;;;;;;;19.73;10.05;;;8.10;99.90;;;;;;5033084;28;20022;-77
2022/01/29 10:33:22;;;;;;;20.10;11.10;;;8.10;99.90;;;;;;5030306;28;20036;-73
2022/01/29 10:35:50;;;;;;;18.52;10.13;;;8.10;99.90;;;;;;5029692;28;20452;-77
2022/01/29 10:38:39;;;;;;;23.17;9.77;;;8.20;99.90;;;;;;5025514;28;20042;-75
2022/01/29 10:41:12;;;;;;;18.77;9.93;;;8.20;99.90;;;;;;5024810;28;20034;-74
2022/01/29 10:43:54;;;;;;;21.52;9.55;;;8.20;99.90;;;;;;5027040;28;20013;-76
2022/01/29 10:46:30;;;;;;;17.02;8.77;;;8.20;99.90;;;;;;5039862;28;20068;-75
2022/01/29 10:48:58;;;;;;;19.85;9.00;;;8.20;99.90;;;;;;5028642;28;20029;-72
2022/01/29 10:51:24;;;;;;;22.30;9.82;;;8.20;99.90;;;;;;5024071;28;20056;-73
2022/01/29 10:53:53;;;;;;;22.42;9.40;;;8.20;99.90;;;;;;5027245;28;20493;-73
2022/01/29 10:56:21;;;;;;;20.55;9.18;;;8.20;99.90;;;;;;5031825;28;20033;-76
2022/01/29 10:58:50;;;;;;;20.15;10.38;;;8.30;99.90;;;;;;5023287;28;20029;-75
2022/01/29 11:01:23;;;;;;;16.70;8.48;;;8.30;99.90;;;;;;5032426;28;20083;-74
2022/01/29 11:03:53;;;;;;;15.50;8.70;;;8.30;99.90;;;;;;5030302;28;20360;-73
2022/01/29 11:06:22;;;;;;;18.85;10.10;;;8.30;99.90;;;;;;5020778;28;20026;-74
2022/01/29 11:08:50;;;;;;;18.35;9.02;;;8.30;99.90;;;;;;5031922;28;20060;-73
2022/01/29 11:11:16;;;;;;;17.88;8.75;;;8.40;99.90;;;;;;5021716;28;20029;-73
2022/01/29 11:13:43;;;;;;;17.15;8.48;;;8.40;99.90;;;;;;5026581;28;20040;-74
2022/01/29 11:16:10;;;;;;;18.55;9.20;;;8.40;99.90;;;;;;5030548;28;20025;-73
2022/01/29 11:18:36;;;;;;;15.43;9.25;;;8.40;99.90;;;;;;5028954;28;20025;-72
2022/01/29 11:21:03;;;;;;;23.40;10.73;;;8.40;99.90;;;;;;5023112;28;20553;-72
2022/01/29 11:23:29;;;;;;;18.20;9.45;;;8.40;99.90;;;;;;5026288;28;20040;-73
2022/01/29 11:25:58;;;;;;;15.73;8.75;;;8.40;99.90;;;;;;5026102;28;20022;-73
2022/01/29 11:28:26;;;;;;;22.05;10.55;;;8.40;99.90;;;;;;5024560;28;20048;-72
2022/01/29 11:31:28;;;;;;;21.65;10.93;;;8.40;99.90;;;;;;5027213;28;20171;-72
2022/01/29 11:34:00;;;;;;;21.50;11.63;;;8.40;99.90;;;;;;4989599;28;20107;-74
2022/01/29 11:36:47;;;;;;;24.40;12.05;;;8.40;99.90;;;;;;5023337;28;20037;-74
2022/01/29 11:39:23;;;;;;;21.92;11.95;;;8.40;99.90;;;;;;5017521;28;20033;-73
2022/01/29 11:42:11;;;;;;;23.35;11.57;;;8.40;99.90;;;;;;5023277;28;20567;-73
2022/01/29 11:44:38;;;;;;;24.85;11.10;;;8.40;99.90;;;;;;5028506;28;20573;-74
2022/01/29 11:47:42;;;;;;;21.15;10.75;;;8.40;99.90;;;;;;5028000;28;20033;-74
2022/01/29 11:50:19;;;;;;;20.35;11.27;;;8.40;99.90;;;;;;5026478;28;20026;-74
2022/01/29 11:52:59;;;;;;;21.38;11.38;;;8.40;99.90;;;;;;5029364;28;20030;-73
2022/01/29 11:55:46;;;;;;;19.63;11.30;;;8.50;99.90;;;;;;5026950;28;20097;-73
2022/01/29 11:58:17;;;;;;;24.13;11.90;;;8.50;99.90;;;;;;5029501;28;20572;-73
2022/01/29 12:00:57;;;;;;;26.55;11.70;;;8.50;99.90;;;;;;5028352;28;20092;-73
2022/01/29 12:03:42;;;;;;;18.92;10.88;;;8.50;99.90;;;;;;5030258;28;20076;-74
2022/01/29 12:08:56;;;;;;;19.85;10.57;;;8.50;99.90;;;;;;5028472;28;20108;-73
2022/01/29 12:11:23;;;;;;;17.92;9.95;;;8.60;99.90;;;;;;5028014;28;20049;-71
2022/01/29 12:14:14;;;;;;;18.77;9.27;;;8.60;99.90;;;;;;5036011;28;20041;-71
2022/01/29 12:16:54;;;;;;;16.75;9.75;;;8.60;99.90;;;;;;5030999;28;20513;-71
2022/01/29 12:19:40;;;;;;;19.15;9.38;;;8.60;99.90;;;;;;5037903;28;20094;-71
2022/01/29 12:22:11;;;;;;;17.92;8.93;;;8.60;99.90;;;;;;5034451;28;20368;-71
2022/01/29 12:24:55;;;;;;;17.38;8.90;;;8.60;99.90;;;;;;5032007;28;20191;-72
2022/01/29 12:27:22;;;;;;;15.43;8.50;;;8.70;99.90;;;;;;5041140;28;20104;-73
2022/01/29 12:29:47;;;;;;;16.98;8.90;;;8.70;99.90;;;;;;5034829;28;20041;-72
2022/01/29 12:32:13;;;;;;;18.00;8.90;;;8.70;99.90;;;;;;5034803;28;20034;-73
2022/01/29 12:34:39;;;;;;;18.42;9.77;;;8.70;99.90;;;;;;5025703;28;20030;-72
2022/01/29 12:37:12;;;;;;;17.02;9.30;;;8.70;99.90;;;;;;5032595;28;20459;-72
2022/01/29 12:39:41;;;;;;;16.23;8.45;;;8.70;99.90;;;;;;5033628;28;20117;-72
2022/01/29 12:42:28;;;;;;;16.25;9.27;;;8.70;99.90;;;;;;5037264;28;20361;-72
2022/01/29 12:45:03;;;;;;;12.75;7.63;;;8.70;99.90;;;;;;5033739;28;20017;-72
2022/01/29 12:47:31;;;;;;;17.40;8.30;;;8.80;99.90;;;;;;5033933;28;20022;-73
2022/01/29 12:49:57;;;;;;;14.20;7.72;;;8.70;99.90;;;;;;5036143;28;20550;-73
2022/01/29 12:52:24;;;;;;;11.98;8.05;;;8.70;99.90;;;;;;5031447;28;20033;-73
2022/01/29 12:54:58;;;;;;;12.73;6.88;;;8.70;99.90;;;;;;5035759;28;20056;-72
2022/01/29 12:57:40;;;;;;;13.38;7.20;;;8.80;99.90;;;;;;5033604;28;20052;-73